Time;durP1;ratioP1;P1;durP2;ratioP2;P2;SDS_P1;SDS_P2;PMS_P1;PMS_P2;Temp;Humidity;BMP_temperature;BMP_pressure;BME280_temperature;BME280_humidity;BME280_pressure;Samples;Min_cycle;Max_cycle;Signal;HPM_P1;HPM_P2
2022/05/28 00:01:02;;;;;;;9.85;3.40;;;;;;;9.37;87.97;102174.13;4951624;29;20038;-65
2022/05/28 00:03:28;;;;;;;7.70;2.50;;;;;;;9.39;87.14;102155.25;4951622;29;20412;-66
2022/05/28 00:05:54;;;;;;;9.35;2.97;;;;;;;9.35;87.79;102155.03;4952110;29;20027;-65
2022/05/28 00:08:19;;;;;;;7.55;2.90;;;;;;;9.35;88.29;102154.16;4951895;29;20038;-65
2022/05/28 00:10:46;;;;;;;10.80;3.38;;;;;;;9.37;87.62;102152.56;4951808;29;20069;-66
2022/05/28 00:13:12;;;;;;;9.82;3.00;;;;;;;9.40;87.27;102157.91;4951452;29;20162;-66
2022/05/28 00:15:37;;;;;;;8.27;2.85;;;;;;;9.43;87.58;102147.72;4951570;28;20122;-66
2022/05/28 00:18:03;;;;;;;8.55;3.20;;;;;;;9.45;88.31;102150.41;4951156;29;20027;-65
2022/05/28 00:20:29;;;;;;;9.13;2.95;;;;;;;9.44;88.11;102143.47;4951560;29;20047;-66
2022/05/28 00:22:55;;;;;;;9.00;3.08;;;;;;;9.45;87.71;102140.06;4951426;29;20134;-65
2022/05/28 00:25:21;;;;;;;12.35;3.15;;;;;;;9.49;87.62;102139.44;4950875;29;20042;-65
2022/05/28 00:27:46;;;;;;;9.95;3.03;;;;;;;9.50;87.94;102138.63;4951609;29;20039;-65
2022/05/28 00:30:15;;;;;;;13.50;4.18;;;;;;;9.52;87.62;102138.69;4951429;29;20034;-65
2022/05/28 00:32:42;;;;;;;9.10;3.10;;;;;;;9.57;87.31;102134.72;4951008;29;20060;-65
2022/05/28 00:35:10;;;;;;;11.90;3.10;;;;;;;9.60;86.98;102135.78;4951352;29;20062;-65
2022/05/28 00:37:36;;;;;;;9.52;3.25;;;;;;;9.61;87.55;102139.22;4951073;29;20353;-66
2022/05/28 00:40:04;;;;;;;12.23;3.90;;;;;;;9.65;87.02;102142.88;4951068;29;20047;-65
2022/05/28 00:42:30;;;;;;;10.73;3.40;;;;;;;9.65;87.02;102141.19;4951157;29;20125;-65
2022/05/28 00:44:55;;;;;;;7.75;3.20;;;;;;;9.66;87.37;102139.50;4951197;29;20122;-65
2022/05/28 00:47:21;;;;;;;8.50;3.22;;;;;;;9.66;87.44;102139.50;4951162;29;20042;-66
2022/05/28 00:49:47;;;;;;;13.60;3.13;;;;;;;9.66;87.52;102136.94;4950871;29;20097;-65
2022/05/28 00:52:13;;;;;;;8.23;3.17;;;;;;;9.71;86.90;102138.06;4951333;29;20059;-65
2022/05/28 00:54:43;;;;;;;11.23;3.67;;;;;;;9.76;87.27;102133.16;4950951;29;20391;-65
2022/05/28 00:57:10;;;;;;;6.15;2.92;;;;;;;9.80;86.80;102132.53;4951487;29;20027;-66
2022/05/28 00:59:36;;;;;;;10.93;4.15;;;;;;;9.83;86.74;102138.75;4950918;29;20033;-65
2022/05/28 01:02:14;;;;;;;9.82;3.72;;;;;;;9.80;86.88;102128.25;4951028;29;20106;-65
2022/05/28 01:04:52;;;;;;;9.63;3.63;;;;;;;9.75;87.76;102129.66;4951348;29;20192;-65
2022/05/28 01:07:42;;;;;;;9.25;4.35;;;;;;;9.69;88.20;102130.22;4951086;29;20032;-66
2022/05/28 01:10:38;;;;;;;12.52;4.00;;;;;;;9.65;88.10;102127.34;4951304;29;20118;-66
2022/05/28 01:13:33;;;;;;;10.38;3.28;;;;;;;9.56;89.15;102122.56;4950684;28;20043;-65
2022/05/28 01:16:12;;;;;;;11.15;3.97;;;;;;;9.51;89.94;102122.31;4948634;29;20039;-65
2022/05/28 01:18:47;;;;;;;11.50;4.00;;;;;;;9.48;89.50;102119.53;4951009;29;20042;-65
2022/05/28 01:21:27;;;;;;;13.15;3.72;;;;;;;9.50;89.88;102115.31;4951021;29;20047;-65
2022/05/28 01:24:07;;;;;;;11.93;3.63;;;;;;;9.52;89.16;102116.31;4950655;29;20051;-65
2022/05/28 01:26:41;;;;;;;14.68;3.53;;;;;;;9.51;89.37;102111.97;4950823;29;20024;-65
2022/05/28 01:29:10;;;;;;;11.13;3.50;;;;;;;9.47;89.90;102113.47;4953909;28;20031;-65
2022/05/28 01:31:37;;;;;;;10.13;3.17;;;;;;;9.45;90.21;102111.59;4954699;29;20031;-66
2022/05/28 01:34:06;;;;;;;9.98;3.83;;;;;;;9.45;90.66;102119.34;4954551;28;20035;-66
2022/05/28 01:36:33;;;;;;;10.75;3.97;;;;;;;9.45;90.45;102107.31;4954591;29;20016;-65
2022/05/28 01:38:59;;;;;;;11.73;4.22;;;;;;;9.49;90.13;102106.69;4954439;29;20085;-65
2022/05/28 01:41:26;;;;;;;7.78;3.38;;;;;;;9.52;90.38;102108.53;4954412;29;20031;-65
2022/05/28 01:43:53;;;;;;;9.73;3.60;;;;;;;9.55;90.02;102107.84;4954463;29;20023;-65
2022/05/28 01:46:21;;;;;;;11.27;4.45;;;;;;;9.57;89.76;102108.84;4954025;29;20050;-65
2022/05/28 01:48:52;;;;;;;8.93;3.90;;;;;;;9.52;90.45;102105.97;4954911;29;20031;-65
2022/05/28 01:51:20;;;;;;;12.33;3.87;;;;;;;9.53;90.02;102106.88;4954305;29;20038;-65
2022/05/28 01:56:31;;;;;;;10.55;4.07;;;;;;;9.56;89.94;102107.94;4954244;29;20078;-65
2022/05/28 01:58:57;;;;;;;10.93;3.97;;;;;;;9.51;90.32;102106.78;4953805;29;20036;-65
2022/05/28 02:01:22;;;;;;;10.80;4.63;;;;;;;9.52;89.73;102108.53;4954242;29;20037;-65
2022/05/28 02:03:51;;;;;;;16.95;5.45;;;;;;;9.55;90.27;102111.31;4953882;29;20027;-65
2022/05/28 02:06:16;;;;;;;11.10;3.97;;;;;;;9.59;89.40;102108.09;4954092;29;20027;-65
2022/05/28 02:08:44;;;;;;;13.85;4.65;;;;;;;9.64;89.33;102113.53;4953520;29;20031;-65
2022/05/28 02:11:14;;;;;;;11.30;3.90;;;;;;;9.61;89.82;102109.06;4953915;29;20027;-65
2022/05/28 02:14:14;;;;;;;8.82;3.80;;;;;;;9.59;90.62;102102.03;4953876;29;20114;-65
2022/05/28 02:16:42;;;;;;;11.50;4.65;;;;;;;9.53;91.34;102109.44;4953859;29;20031;-65
2022/05/28 02:19:24;;;;;;;10.63;4.18;;;;;;;9.47;91.32;102108.31;4952837;29;20063;-65
2022/05/28 02:22:01;;;;;;;10.38;4.05;;;;;;;9.40;92.91;102113.03;4953534;29;20031;-66
2022/05/28 02:24:39;;;;;;;15.15;4.32;;;;;;;9.34;92.95;102108.38;4953508;29;20031;-65
2022/05/28 02:27:08;;;;;;;14.82;4.47;;;;;;;9.31;93.29;102106.53;4953057;29;20824;-66
2022/05/28 02:29:34;;;;;;;15.38;4.28;;;;;;;9.27;94.24;102112.31;4953860;29;20055;-66
2022/05/28 02:31:59;;;;;;;12.38;4.78;;;;;;;9.25;95.12;102109.66;4953590;29;20066;-65
2022/05/28 02:34:24;;;;;;;12.77;4.88;;;;;;;9.27;94.41;102099.38;4953663;29;20034;-65
2022/05/28 02:36:50;;;;;;;8.57;4.50;;;;;;;9.28;94.10;102106.38;4952922;29;20165;-66
2022/05/28 02:39:15;;;;;;;12.32;4.47;;;;;;;9.30;94.79;102103.88;4952702;28;20031;-65
2022/05/28 02:41:41;;;;;;;11.48;3.75;;;;;;;9.28;94.48;102100.28;4953253;29;20027;-65
2022/05/28 02:44:06;;;;;;;9.73;4.07;;;;;;;9.28;94.75;102097.69;4953286;28;20035;-65
2022/05/28 02:46:31;;;;;;;8.23;3.47;;;;;;;9.28;94.45;102089.94;4952610;28;20038;-65
2022/05/28 02:48:57;;;;;;;12.10;3.88;;;;;;;9.22;94.86;102093.06;4953267;28;20101;-65
2022/05/28 02:51:23;;;;;;;12.77;4.00;;;;;;;9.15;95.06;102090.91;4953335;29;20055;-65
2022/05/28 02:53:50;;;;;;;11.88;5.03;;;;;;;9.13;94.88;102093.41;4953198;29;20089;-65
2022/05/28 02:56:17;;;;;;;11.32;4.43;;;;;;;9.05;95.39;102089.50;4952987;29;20415;-65
2022/05/28 02:58:42;;;;;;;9.98;4.10;;;;;;;9.01;96.44;102083.25;4952778;29;20041;-65
2022/05/28 03:01:26;;;;;;;10.95;3.60;;;;;;;8.97;95.95;102083.88;4953036;29;20031;-64
2022/05/28 03:03:52;;;;;;;10.25;4.57;;;;;;;8.94;97.05;102073.38;4953083;29;20035;-66
2022/05/28 03:06:17;;;;;;;11.18;3.78;;;;;;;8.95;96.63;102080.31;4953019;29;20448;-65
2022/05/28 03:08:43;;;;;;;8.65;3.78;;;;;;;8.96;96.42;102087.28;4953001;29;20090;-65
2022/05/28 03:11:09;;;;;;;12.48;4.70;;;;;;;8.94;97.05;102083.72;4935453;29;20050;-65
2022/05/28 03:13:35;;;;;;;9.57;3.72;;;;;;;8.89;97.63;102088.59;4952213;29;20086;-66
2022/05/28 03:16:00;;;;;;;13.00;4.70;;;;;;;8.83;97.79;102077.91;4952959;29;20031;-65
2022/05/28 03:18:25;;;;;;;15.43;4.30;;;;;;;8.77;98.28;102084.50;4951661;29;20055;-65
2022/05/28 03:20:51;;;;;;;11.50;4.05;;;;;;;8.75;98.41;102087.78;4951418;29;20867;-66
2022/05/28 03:23:16;;;;;;;15.73;3.90;;;;;;;8.76;99.69;102087.00;4951190;29;20031;-66
2022/05/28 03:25:41;;;;;;;9.75;3.85;;;;;;;8.82;99.09;102092.50;4950908;29;20035;-66
2022/05/28 03:28:07;;;;;;;14.80;4.10;;;;;;;8.87;98.52;102096.25;4951207;29;20432;-65
2022/05/28 03:30:32;;;;;;;12.00;4.22;;;;;;;8.89;98.78;102089.50;4951297;29;20031;-66
2022/05/28 03:32:57;;;;;;;10.27;4.70;;;;;;;8.89;99.41;102086.00;4950600;29;20035;-65
2022/05/28 03:35:23;;;;;;;11.13;4.10;;;;;;;8.85;99.64;102095.28;4952340;29;20023;-65
2022/05/28 03:37:48;;;;;;;8.40;3.83;;;;;;;8.84;100.00;102087.44;4952390;29;20066;-65
2022/05/28 03:40:13;;;;;;;16.45;5.70;;;;;;;8.84;100.00;102095.19;4952113;29;20082;-66
2022/05/28 03:42:38;;;;;;;14.20;3.88;;;;;;;8.82;100.00;102091.59;4952612;29;20027;-65
2022/05/28 03:45:04;;;;;;;11.80;4.28;;;;;;;8.80;100.00;102096.69;4951795;29;20045;-65
2022/05/28 03:47:31;;;;;;;10.55;3.45;;;;;;;8.80;100.00;102100.97;4952653;29;20027;-65
2022/05/28 03:49:57;;;;;;;11.52;3.95;;;;;;;8.77;100.00;102109.44;4952159;29;20031;-65
2022/05/28 03:52:22;;;;;;;12.75;4.18;;;;;;;8.74;100.00;102102.38;4951428;28;20078;-66
2022/05/28 03:54:47;;;;;;;11.48;3.70;;;;;;;8.71;100.00;102106.47;4934383;29;20059;-65
2022/05/28 03:57:20;;;;;;;11.30;3.85;;;;;;;8.70;100.00;102109.88;4952321;29;20127;-65
2022/05/28 03:59:46;;;;;;;8.85;4.72;;;;;;;8.69;100.00;102108.09;4951938;29;20039;-66
2022/05/28 04:02:11;;;;;;;11.77;3.80;;;;;;;8.67;100.00;102099.34;4951880;29;20030;-65
2022/05/28 04:04:37;;;;;;;11.65;3.60;;;;;;;8.65;100.00;102107.03;4951884;29;20027;-65
2022/05/28 04:07:03;;;;;;;12.75;4.55;;;;;;;8.61;100.00;102099.88;4951898;29;20595;-65
2022/05/28 04:09:28;;;;;;;13.57;3.65;;;;;;;8.60;100.00;102104.13;4951986;29;20031;-65
2022/05/28 04:11:53;;;;;;;9.93;3.70;;;;;;;8.59;100.00;102112.72;4934340;29;20027;-65
2022/05/28 04:14:19;;;;;;;10.60;3.80;;;;;;;8.61;100.00;102116.28;4951444;29;20031;-65
2022/05/28 04:16:44;;;;;;;9.93;3.92;;;;;;;8.60;100.00;102106.72;4951895;29;20034;-65
2022/05/28 04:19:09;;;;;;;15.02;3.92;;;;;;;8.61;100.00;102116.28;4951633;29;20576;-66
2022/05/28 04:21:36;;;;;;;10.55;3.90;;;;;;;8.62;100.00;102114.56;4951827;29;20043;-65
2022/05/28 04:24:02;;;;;;;12.38;3.42;;;;;;;8.63;100.00;102114.66;4951146;29;20026;-65
2022/05/28 04:26:27;;;;;;;10.65;3.60;;;;;;;8.65;100.00;102115.66;4951768;29;20031;-64
2022/05/28 04:28:53;;;;;;;10.73;3.70;;;;;;;8.70;100.00;102120.22;4951616;29;20039;-66
2022/05/28 04:31:18;;;;;;;11.50;3.60;;;;;;;8.76;100.00;102124.06;4951605;29;20460;-66
2022/05/28 04:33:43;;;;;;;8.88;3.33;;;;;;;8.82;100.00;102126.13;4951481;29;20042;-66
2022/05/28 04:36:09;;;;;;;12.73;4.15;;;;;;;8.88;100.00;102130.75;4951218;29;20035;-65
2022/05/28 04:38:34;;;;;;;8.90;3.42;;;;;;;8.98;100.00;102127.00;4951243;29;20038;-65
2022/05/28 04:41:00;;;;;;;9.40;3.38;;;;;;;9.01;100.00;102120.34;4951158;29;20447;-65
2022/05/28 04:43:25;;;;;;;9.25;2.90;;;;;;;9.10;100.00;102119.97;4951226;28;20035;-65
2022/05/28 04:45:50;;;;;;;9.10;3.75;;;;;;;9.17;100.00;102133.28;4951272;29;20031;-65
2022/05/28 04:48:16;;;;;;;10.05;3.53;;;;;;;9.23;100.00;102133.63;4951143;29;20035;-65
2022/05/28 04:50:41;;;;;;;10.90;3.35;;;;;;;9.30;100.00;102119.38;4950842;29;20062;-65
2022/05/28 04:53:06;;;;;;;11.13;3.67;;;;;;;9.36;100.00;102125.78;4951580;29;20373;-65
2022/05/28 04:55:32;;;;;;;9.18;3.05;;;;;;;9.46;100.00;102131.50;4951410;29;20057;-65
2022/05/28 04:57:58;;;;;;;11.40;4.20;;;;;;;9.53;100.00;102128.47;4951191;29;20067;-66
2022/05/28 05:00:26;;;;;;;17.55;4.07;;;;;;;9.61;100.00;102129.78;4950647;29;20863;-65
2022/05/28 05:02:51;;;;;;;13.13;3.63;;;;;;;9.73;100.00;102139.06;4950940;28;20119;-65
2022/05/28 05:05:18;;;;;;;11.32;3.35;;;;;;;9.82;100.00;102136.97;4951124;29;20113;-66
2022/05/28 05:07:43;;;;;;;9.55;3.40;;;;;;;9.94;100.00;102135.88;4951255;29;20043;-65
2022/05/28 05:10:09;;;;;;;9.50;3.50;;;;;;;10.03;100.00;102144.16;4951023;29;20110;-65
2022/05/28 05:12:34;;;;;;;9.70;4.07;;;;;;;10.13;100.00;102148.13;4950726;29;20035;-66
2022/05/28 05:15:00;;;;;;;12.27;3.30;;;;;;;10.22;100.00;102139.97;4951174;29;20038;-66
2022/05/28 05:17:25;;;;;;;8.75;3.17;;;;;;;10.33;100.00;102140.53;4951161;29;20042;-66
2022/05/28 05:19:52;;;;;;;10.48;3.20;;;;;;;10.43;100.00;102139.34;4950853;29;20055;-66
2022/05/28 05:22:17;;;;;;;8.25;2.58;;;;;;;10.55;100.00;102145.22;4950826;29;20030;-65
2022/05/28 05:24:43;;;;;;;12.30;3.20;;;;;;;10.66;100.00;102147.50;4951261;29;20032;-65
2022/05/28 05:27:10;;;;;;;11.20;3.00;;;;;;;10.76;100.00;102146.25;4950120;29;20039;-66
2022/05/28 05:29:35;;;;;;;9.75;2.50;;;;;;;10.87;100.00;102145.13;4950609;29;20027;-66
2022/05/28 05:32:00;;;;;;;9.50;2.45;;;;;;;10.99;100.00;102147.44;4950145;29;20432;-65
2022/05/28 05:34:26;;;;;;;9.43;2.83;;;;;;;11.12;100.00;102148.06;4965293;28;20035;-65
2022/05/28 05:36:51;;;;;;;10.20;2.78;;;;;;;11.27;100.00;102145.38;4949587;29;20059;-66
2022/05/28 05:39:17;;;;;;;10.65;2.30;;;;;;;11.37;97.61;102149.34;4950160;29;20031;-66
2022/05/28 05:41:43;;;;;;;9.50;2.20;;;;;;;11.50;97.17;102151.69;4950166;29;20031;-66
2022/05/28 05:44:09;;;;;;;6.85;1.80;;;;;;;11.62;97.17;102147.94;4950216;29;20074;-65
2022/05/28 05:46:34;;;;;;;11.00;1.80;;;;;;;11.74;96.23;102148.53;4949693;29;20122;-65
2022/05/28 05:49:00;;;;;;;4.35;1.23;;;;;;;11.89;94.44;102150.09;4949882;29;20070;-66
2022/05/28 05:51:27;;;;;;;7.72;1.75;;;;;;;12.05;93.73;102153.41;4950415;29;20027;-65
2022/05/28 05:53:52;;;;;;;9.57;1.73;;;;;;;12.20;91.02;102159.31;4949890;29;20551;-65
2022/05/28 05:56:18;;;;;;;7.25;1.73;;;;;;;12.32;89.35;102150.34;4965154;28;20031;-66
2022/05/28 05:58:43;;;;;;;8.35;1.55;;;;;;;12.35;85.79;102158.25;4950096;29;20031;-65
2022/05/28 06:01:08;;;;;;;10.27;1.67;;;;;;;12.36;86.06;102157.44;4950127;29;20031;-66
2022/05/28 06:03:34;;;;;;;6.45;1.50;;;;;;;12.40;86.71;102156.75;4949572;29;20031;-66
2022/05/28 06:06:03;;;;;;;6.50;2.00;;;;;;;12.43;86.57;102162.09;4950389;29;20062;-65
2022/05/28 06:08:29;;;;;;;6.18;1.58;;;;;;;12.46;86.57;102159.66;4950145;29;20031;-66
2022/05/28 06:10:55;;;;;;;6.35;1.67;;;;;;;12.52;86.56;102166.81;4949980;29;20041;-67
2022/05/28 06:13:20;;;;;;;8.88;1.95;;;;;;;12.50;85.22;102168.47;4949873;29;20058;-65
2022/05/28 06:15:45;;;;;;;4.82;1.60;;;;;;;12.51;85.96;102154.66;4952428;28;20085;-65
2022/05/28 06:18:15;;;;;;;5.03;0.95;;;;;;;12.63;84.21;102162.09;4953412;29;20109;-66
2022/05/28 06:20:40;;;;;;;5.90;1.05;;;;;;;12.71;82.58;102165.94;4953016;29;20061;-65
2022/05/28 06:23:06;;;;;;;4.78;1.30;;;;;;;12.89;83.15;102164.97;4953593;29;20105;-65
2022/05/28 06:25:32;;;;;;;6.68;1.58;;;;;;;13.02;81.48;102166.41;4953202;29;20134;-65
2022/05/28 06:27:57;;;;;;;6.35;1.00;;;;;;;13.04;80.08;102169.06;4952472;29;20442;-65
2022/05/28 06:30:23;;;;;;;9.98;1.50;;;;;;;13.16;79.59;102172.19;4953156;29;20031;-66
2022/05/28 06:32:49;;;;;;;3.78;0.98;;;;;;;13.36;79.26;102169.53;4953469;29;20027;-66
2022/05/28 06:35:14;;;;;;;4.32;1.40;;;;;;;13.47;76.50;102182.09;4953172;29;20118;-66
2022/05/28 06:37:39;;;;;;;7.05;1.30;;;;;;;13.56;74.78;102165.16;4952862;29;20043;-66
2022/05/28 06:40:06;;;;;;;3.50;1.27;;;;;;;13.65;74.53;102171.59;4952929;28;20118;-66
2022/05/28 06:42:32;;;;;;;5.78;1.17;;;;;;;13.68;74.59;102162.19;4952972;29;20082;-66
2022/05/28 06:44:57;;;;;;;7.63;1.45;;;;;;;13.66;73.29;102169.06;4952926;28;20075;-65
2022/05/28 06:47:23;;;;;;;7.10;1.23;;;;;;;13.66;72.86;102174.25;4953047;29;20035;-65
2022/05/28 06:51:01;;;;;;;3.13;1.13;;;;;;;13.74;72.88;102176.28;4953160;28;20086;-65
2022/05/28 06:52:33;;;;;;;4.22;1.08;;;;;;;13.80;71.22;102177.41;4953000;28;20443;-65
2022/05/28 06:54:58;;;;;;;6.65;1.30;;;;;;;14.02;70.06;102180.88;4952069;29;20023;-65
2022/05/28 06:57:24;;;;;;;10.98;1.50;;;;;;;14.25;71.32;102174.75;4952995;29;20055;-66
2022/05/28 06:59:49;;;;;;;5.25;1.38;;;;;;;14.55;71.40;102181.06;4952845;29;20510;-65
2022/05/28 07:02:14;;;;;;;6.90;1.30;;;;;;;14.76;68.87;102178.38;4952892;29;20032;-66
2022/05/28 07:04:40;;;;;;;5.70;1.20;;;;;;;14.87;67.21;102177.06;4952156;29;20032;-65
2022/05/28 07:07:05;;;;;;;5.13;1.63;;;;;;;15.03;67.53;102182.81;4952614;29;20031;-66
2022/05/28 07:09:31;;;;;;;5.22;1.00;;;;;;;15.15;66.04;102184.09;4952624;29;20043;-65
2022/05/28 07:11:56;;;;;;;6.78;1.38;;;;;;;15.20;65.21;102185.13;4952695;29;20035;-67
2022/05/28 07:14:22;;;;;;;6.40;1.42;;;;;;;15.10;63.49;102182.19;4952094;29;20031;-67
2022/05/28 07:16:47;;;;;;;6.13;1.30;;;;;;;14.84;63.50;102186.50;4952388;29;20046;-65
2022/05/28 07:19:13;;;;;;;6.20;1.20;;;;;;;14.50;65.31;102196.53;4952154;29;20101;-66
2022/05/28 07:21:38;;;;;;;6.28;1.08;;;;;;;14.40;64.78;102191.00;4951665;28;20899;-66
2022/05/28 07:24:04;;;;;;;4.15;1.60;;;;;;;14.36;65.73;102188.19;4952384;29;20041;-65
2022/05/28 07:26:29;;;;;;;7.72;1.90;;;;;;;14.45;65.72;102187.66;4951967;28;20383;-66
2022/05/28 07:28:55;;;;;;;5.68;1.20;;;;;;;14.73;67.52;102196.53;4952159;28;20034;-66
2022/05/28 07:31:21;;;;;;;4.75;1.10;;;;;;;14.92;65.57;102200.72;4951841;29;20030;-65
2022/05/28 07:33:48;;;;;;;9.15;1.85;;;;;;;15.28;66.07;102191.50;4952292;29;20034;-67
2022/05/28 07:36:21;;;;;;;4.80;0.90;;;;;;;15.65;63.42;102183.09;4951543;29;20487;-66
2022/05/28 07:38:47;;;;;;;6.32;1.00;;;;;;;16.03;63.43;102185.19;4952264;29;20134;-65
2022/05/28 07:41:15;;;;;;;5.25;1.10;;;;;;;16.41;62.15;102184.53;4952394;29;20106;-65
2022/05/28 07:43:41;;;;;;;2.67;0.90;;;;;;;16.32;56.91;102180.81;4952325;29;20035;-65
2022/05/28 07:46:15;;;;;;;4.50;1.55;;;;;;;16.42;58.71;102191.56;4951297;29;20036;-65
2022/05/28 07:48:41;;;;;;;4.57;1.38;;;;;;;16.73;58.73;102184.56;4952383;29;20063;-66
2022/05/28 07:51:06;;;;;;;4.20;1.15;;;;;;;17.01;57.26;102180.09;4952048;29;20070;-65
2022/05/28 07:53:31;;;;;;;4.85;1.00;;;;;;;17.37;58.10;102177.53;4952431;29;20054;-66
2022/05/28 07:56:00;;;;;;;4.53;1.23;;;;;;;17.66;56.88;102179.97;4951983;29;20077;-66
2022/05/28 07:58:26;;;;;;;6.82;1.10;;;;;;;17.93;53.02;102183.19;4952532;29;20046;-66
2022/05/28 08:00:51;;;;;;;5.10;0.88;;;;;;;18.13;53.24;102187.13;4952322;29;20388;-65
2022/05/28 08:03:17;;;;;;;6.03;1.00;;;;;;;18.28;52.66;102185.72;4952477;29;20065;-65
2022/05/28 08:05:46;;;;;;;3.45;0.82;;;;;;;18.46;53.65;102194.84;4951818;29;20043;-66
2022/05/28 08:08:12;;;;;;;5.35;1.17;;;;;;;18.54;51.91;102184.50;4951464;29;20031;-66
2022/05/28 08:10:37;;;;;;;7.30;1.13;;;;;;;18.74;54.61;102184.03;4951869;29;20024;-66
2022/05/28 08:13:05;;;;;;;6.30;1.20;;;;;;;18.69;54.30;102181.31;4952296;29;20035;-66
2022/05/28 08:15:32;;;;;;;4.00;1.40;;;;;;;18.53;53.58;102183.63;4951581;29;20038;-67
2022/05/28 08:17:57;;;;;;;6.35;1.30;;;;;;;18.26;53.96;102182.19;4951690;29;20046;-66
2022/05/28 08:23:08;;;;;;;4.55;1.25;;;;;;;17.73;54.25;102176.66;4951826;29;20372;-66
2022/05/28 08:23:11;;;;;;;6.50;1.33;;;;;;;17.12;54.69;102172.56;4951692;28;20399;-66
2022/05/28 08:25:39;;;;;;;6.70;1.15;;;;;;;16.68;54.46;102183.56;4951761;29;20181;-66
2022/05/28 08:28:06;;;;;;;4.70;1.15;;;;;;;16.82;53.96;102172.59;4951594;29;20098;-66
2022/05/28 08:30:31;;;;;;;6.53;1.80;;;;;;;17.12;56.23;102174.28;4951356;29;20066;-66
2022/05/28 08:32:57;;;;;;;4.00;1.00;;;;;;;17.46;54.04;102172.53;4952054;29;20027;-65
2022/05/28 08:35:23;;;;;;;5.93;1.48;;;;;;;17.73;52.93;102165.28;4951678;29;20114;-66
2022/05/28 08:37:49;;;;;;;6.15;1.30;;;;;;;18.05;51.02;102169.47;4951295;28;20528;-66
2022/05/28 08:40:14;;;;;;;3.22;1.00;;;;;;;18.32;52.11;102176.19;4951098;29;20143;-66
2022/05/28 08:42:41;;;;;;;4.82;1.05;;;;;;;18.50;50.89;102169.53;4952121;29;20066;-66
2022/05/28 08:45:08;;;;;;;4.45;1.00;;;;;;;18.86;51.82;102164.97;4951483;29;20039;-67
2022/05/28 08:47:39;;;;;;;4.85;1.50;;;;;;;19.10;50.20;102169.81;4951291;29;20579;-65
2022/05/28 08:50:07;;;;;;;6.13;1.40;;;;;;;19.30;48.66;102166.66;4951264;29;20043;-67
2022/05/28 08:53:06;;;;;;;6.10;1.15;;;;;;;19.24;50.02;102169.16;4951380;29;20692;-65
2022/05/28 08:55:39;;;;;;;8.90;1.38;;;;;;;18.90;48.94;102175.59;4951341;29;20027;-66
2022/05/28 08:58:07;;;;;;;6.28;1.30;;;;;;;18.43;49.46;102177.31;4951175;29;20384;-66
2022/05/28 09:00:46;;;;;;;6.72;1.40;;;;;;;18.17;49.78;102182.88;4965655;28;20472;-66
2022/05/28 09:03:15;;;;;;;4.70;1.30;;;;;;;17.92;50.46;102182.31;4950481;29;20043;-66
2022/05/28 09:05:50;;;;;;;6.03;1.50;;;;;;;17.56;53.08;102176.25;4951192;29;20501;-66
2022/05/28 09:08:25;;;;;;;5.95;1.42;;;;;;;17.21;53.62;102184.13;4951157;29;20493;-65
2022/05/28 09:10:52;;;;;;;6.72;1.15;;;;;;;17.11;55.10;102186.50;4951059;29;20030;-67
2022/05/28 09:13:37;;;;;;;5.03;1.40;;;;;;;17.06;55.11;102182.84;4950955;29;20035;-66
2022/05/28 09:16:04;;;;;;;3.97;1.30;;;;;;;17.36;56.37;102181.00;4950719;29;20035;-66
2022/05/28 09:18:38;;;;;;;6.38;1.38;;;;;;;17.80;54.46;102176.78;4951431;29;20413;-66
2022/05/28 09:21:05;;;;;;;6.10;1.10;;;;;;;18.20;54.63;102177.72;4950934;29;20102;-66
2022/05/28 09:23:43;;;;;;;6.97;1.42;;;;;;;18.45;51.77;102172.97;4951140;29;20038;-66
2022/05/28 09:26:09;;;;;;;4.32;1.10;;;;;;;18.74;50.57;102173.50;4951112;29;20433;-66
2022/05/28 09:28:50;;;;;;;4.55;1.15;;;;;;;19.01;51.59;102167.00;4965538;28;20460;-66
2022/05/28 09:31:22;;;;;;;4.78;1.38;;;;;;;19.20;47.38;102163.88;4950647;29;20023;-66
2022/05/28 09:34:18;;;;;;;5.07;1.23;;;;;;;19.25;45.70;102173.59;4950802;29;20043;-66
2022/05/28 09:37:00;;;;;;;3.80;1.10;;;;;;;19.38;43.78;102162.41;4950602;29;20558;-66
2022/05/28 09:39:35;;;;;;;5.10;1.10;;;;;;;19.59;46.05;102160.97;4950801;29;20047;-67
2022/05/28 09:42:31;;;;;;;6.13;1.30;;;;;;;19.40;43.44;102162.44;4950496;29;20023;-66
2022/05/28 09:45:14;;;;;;;4.72;1.38;;;;;;;19.00;43.96;102165.22;4950579;29;20404;-66
2022/05/28 09:47:51;;;;;;;4.13;1.23;;;;;;;18.89;45.86;102154.56;4950902;29;20186;-66
2022/05/28 09:50:26;;;;;;;6.63;1.20;;;;;;;18.56;44.66;102154.84;4952333;28;20031;-66
2022/05/28 09:55:49;;;;;;;2.55;1.00;;;;;;;18.04;46.14;102159.84;4954591;29;20154;-66
2022/05/28 09:58:21;;;;;;;2.92;1.40;;;;;;;17.80;47.79;102161.06;4953703;29;20035;-66
2022/05/28 10:00:49;;;;;;;5.95;1.30;;;;;;;17.70;49.09;102160.84;4954096;29;20057;-66
2022/05/28 10:06:13;;;;;;;6.40;1.10;;;;;;;18.47;50.42;102150.25;4953705;29;20077;-65
2022/05/28 10:08:38;;;;;;;6.55;1.33;;;;;;;18.82;47.45;102150.91;4954239;29;20034;-66
2022/05/28 10:11:05;;;;;;;7.35;1.75;;;;;;;19.06;49.47;102149.59;4953761;29;20039;-66
2022/05/28 10:13:42;;;;;;;6.82;1.15;;;;;;;19.02;49.11;102155.63;4954145;29;20030;-66
2022/05/28 10:16:07;;;;;;;5.68;1.40;;;;;;;18.84;48.26;102146.56;4954005;29;20502;-65
2022/05/28 10:18:37;;;;;;;6.07;1.27;;;;;;;19.05;48.45;102153.09;4953798;29;20102;-67
2022/05/28 10:21:16;;;;;;;4.20;1.05;;;;;;;19.23;48.29;102141.16;4953151;29;20078;-66
2022/05/28 10:23:44;;;;;;;5.57;1.17;;;;;;;19.44;47.65;102146.75;4953597;29;20031;-66
2022/05/28 10:26:26;;;;;;;3.88;1.30;;;;;;;19.57;48.27;102146.94;4953547;29;20031;-66
2022/05/28 10:28:59;;;;;;;5.25;1.23;;;;;;;19.76;46.02;102141.94;4953496;29;20035;-65
2022/05/28 10:31:31;;;;;;;3.45;1.02;;;;;;;19.76;43.85;102150.72;4953223;28;20030;-66
2022/05/28 10:33:58;;;;;;;5.38;1.20;;;;;;;19.88;44.73;102147.34;4953603;29;20408;-65
2022/05/28 10:36:30;;;;;;;4.15;1.10;;;;;;;19.87;42.10;102142.97;4953131;29;20825;-66
2022/05/28 10:39:05;;;;;;;5.05;1.00;;;;;;;19.78;41.35;102140.22;4953207;29;20074;-66
2022/05/28 10:41:31;;;;;;;5.50;1.10;;;;;;;19.46;43.02;102135.38;4952317;29;20023;-66
2022/05/28 10:43:57;;;;;;;4.00;0.80;;;;;;;18.93;41.46;102136.25;4953015;29;20035;-65
2022/05/28 10:46:45;;;;;;;4.07;1.20;;;;;;;18.76;44.69;102145.56;4952917;29;20471;-66
2022/05/28 10:49:48;;;;;;;6.45;1.00;;;;;;;18.83;44.59;102145.69;4952830;29;20031;-66
2022/05/28 10:52:52;;;;;;;4.07;0.82;;;;;;;19.01;43.82;102135.50;4953031;29;20490;-66
2022/05/28 10:55:29;;;;;;;4.47;1.00;;;;;;;18.98;44.32;102138.94;4943900;29;20085;-66
2022/05/28 10:58:07;;;;;;;5.93;1.30;;;;;;;18.74;43.16;102136.75;4952743;29;20034;-65
2022/05/28 11:01:02;;;;;;;6.30;1.40;;;;;;;18.81;45.04;102133.41;4952207;28;20112;-65
2022/05/28 11:03:55;;;;;;;2.80;1.02;;;;;;;18.77;43.53;102126.31;4951213;28;20047;-67
2022/05/28 11:06:29;;;;;;;4.00;1.17;;;;;;;18.42;43.79;102128.28;4952661;29;20054;-65
2022/05/28 11:09:01;;;;;;;3.83;1.02;;;;;;;18.49;45.95;102139.81;4952829;29;20031;-65
2022/05/28 11:11:49;;;;;;;4.15;0.98;;;;;;;18.72;44.03;102123.63;4952877;29;20817;-67
2022/05/28 11:14:36;;;;;;;4.57;0.98;;;;;;;19.05;44.79;102125.06;4952215;29;20051;-66
2022/05/28 11:17:12;;;;;;;3.55;0.90;;;;;;;19.30;43.57;102133.38;4952292;29;20042;-66
2022/05/28 11:19:59;;;;;;;4.82;1.13;;;;;;;19.43;43.14;102129.19;4952185;29;20053;-66
2022/05/28 11:22:52;;;;;;;5.28;1.42;;;;;;;19.10;42.90;102129.50;4952282;29;20037;-66
2022/05/28 11:25:43;;;;;;;3.28;1.13;;;;;;;18.87;42.87;102130.88;4952466;29;20027;-65
2022/05/28 11:28:20;;;;;;;5.47;1.13;;;;;;;19.00;44.57;102120.56;4948834;28;20527;-66
2022/05/28 11:30:48;;;;;;;2.72;0.85;;;;;;;19.27;44.38;102121.91;4952317;29;20035;-66
2022/05/28 11:33:21;;;;;;;4.22;1.20;;;;;;;19.53;43.92;102124.97;4952042;29;20031;-66
2022/05/28 11:35:49;;;;;;;4.90;0.95;;;;;;;19.72;41.20;102125.22;4951857;29;20208;-66
2022/05/28 11:38:24;;;;;;;5.13;1.20;;;;;;;19.86;41.85;102119.28;4952156;29;20368;-66
2022/05/28 11:40:53;;;;;;;4.68;1.27;;;;;;;19.91;42.44;102115.84;4951899;29;20038;-65
2022/05/28 11:43:31;;;;;;;8.10;1.50;;;;;;;19.94;42.31;102115.00;4951985;29;20050;-66